sensor_id;sensor_type;location;lat;lon;timestamp;temperature;humidity
25328;DHT22;13279;51.300;12.394;2022-08-19T00:00:09;19.50;99.90
25328;DHT22;13279;51.300;12.394;2022-08-19T00:02:37;19.50;99.90
25328;DHT22;13279;51.300;12.394;2022-08-19T00:05:07;19.50;99.90
25328;DHT22;13279;51.300;12.394;2022-08-19T00:07:35;19.60;99.90
25328;DHT22;13279;51.300;12.394;2022-08-19T00:10:04;19.50;99.90
25328;DHT22;13279;51.300;12.394;2022-08-19T00:12:32;19.60;99.90
25328;DHT22;13279;51.300;12.394;2022-08-19T00:15:00;19.50;99.90
25328;DHT22;13279;51.300;12.394;2022-08-19T00:17:27;19.60;99.90
25328;DHT22;13279;51.300;12.394;2022-08-19T00:19:55;19.60;99.90
25328;DHT22;13279;51.300;12.394;2022-08-19T00:22:24;19.60;99.90
25328;DHT22;13279;51.300;12.394;2022-08-19T00:24:53;19.60;99.90
25328;DHT22;13279;51.300;12.394;2022-08-19T00:27:20;19.60;99.90
25328;DHT22;13279;51.300;12.394;2022-08-19T00:29:47;19.60;99.90
25328;DHT22;13279;51.300;12.394;2022-08-19T00:32:15;19.50;99.90
25328;DHT22;13279;51.300;12.394;2022-08-19T00:34:42;19.50;99.90
25328;DHT22;13279;51.300;12.394;2022-08-19T00:37:10;19.50;99.90
25328;DHT22;13279;51.300;12.394;2022-08-19T00:39:39;19.50;99.90
25328;DHT22;13279;51.300;12.394;2022-08-19T00:42:06;19.50;99.90
25328;DHT22;13279;51.300;12.394;2022-08-19T00:44:34;19.50;99.90
25328;DHT22;13279;51.300;12.394;2022-08-19T00:47:01;19.50;99.90
25328;DHT22;13279;51.300;12.394;2022-08-19T00:49:32;19.50;99.90
25328;DHT22;13279;51.300;12.394;2022-08-19T00:52:04;19.50;99.90
25328;DHT22;13279;51.300;12.394;2022-08-19T00:54:35;19.50;99.90
25328;DHT22;13279;51.300;12.394;2022-08-19T00:57:07;19.60;99.90
25328;DHT22;13279;51.300;12.394;2022-08-19T00:59:38;19.50;99.90
25328;DHT22;13279;51.300;12.394;2022-08-19T01:02:07;19.50;99.90
25328;DHT22;13279;51.300;12.394;2022-08-19T01:04:35;19.50;99.90
25328;DHT22;13279;51.300;12.394;2022-08-19T01:07:02;19.50;99.90
25328;DHT22;13279;51.300;12.394;2022-08-19T01:09:30;19.60;99.90
25328;DHT22;13279;51.300;12.394;2022-08-19T01:11:58;19.50;99.90
25328;DHT22;13279;51.300;12.394;2022-08-19T01:14:27;19.60;99.90
25328;DHT22;13279;51.300;12.394;2022-08-19T01:16:55;19.60;99.90
25328;DHT22;13279;51.300;12.394;2022-08-19T01:19:28;19.50;99.90
25328;DHT22;13279;51.300;12.394;2022-08-19T01:22:00;19.50;99.90
25328;DHT22;13279;51.300;12.394;2022-08-19T01:24:30;19.50;99.90
25328;DHT22;13279;51.300;12.394;2022-08-19T01:26:58;19.50;99.90
25328;DHT22;13279;51.300;12.394;2022-08-19T01:29:26;19.50;99.90
25328;DHT22;13279;51.300;12.394;2022-08-19T01:31:54;19.50;99.90
25328;DHT22;13279;51.300;12.394;2022-08-19T01:34:22;19.50;99.90
25328;DHT22;13279;51.300;12.394;2022-08-19T01:36:50;19.50;99.90
25328;DHT22;13279;51.300;12.394;2022-08-19T01:39:19;19.50;99.90
25328;DHT22;13279;51.300;12.394;2022-08-19T01:41:49;19.50;99.90
25328;DHT22;13279;51.300;12.394;2022-08-19T01:44:17;19.50;99.90
25328;DHT22;13279;51.300;12.394;2022-08-19T01:46:47;19.50;99.90
25328;DHT22;13279;51.300;12.394;2022-08-19T01:49:18;19.50;99.90
25328;DHT22;13279;51.300;12.394;2022-08-19T01:51:47;19.50;99.90
25328;DHT22;13279;51.300;12.394;2022-08-19T01:54:16;19.50;99.90
25328;DHT22;13279;51.300;12.394;2022-08-19T01:56:44;19.50;99.90
25328;DHT22;13279;51.300;12.394;2022-08-19T01:59:16;19.40;99.90
25328;DHT22;13279;51.300;12.394;2022-08-19T02:01:44;19.50;99.90
25328;DHT22;13279;51.300;12.394;2022-08-19T02:04:12;19.50;99.90
25328;DHT22;13279;51.300;12.394;2022-08-19T02:06:40;19.50;99.90
25328;DHT22;13279;51.300;12.394;2022-08-19T02:09:08;19.50;99.90
25328;DHT22;13279;51.300;12.394;2022-08-19T02:11:36;19.50;99.90
25328;DHT22;13279;51.300;12.394;2022-08-19T02:14:07;19.50;99.90
25328;DHT22;13279;51.300;12.394;2022-08-19T02:16:36;19.50;99.90
25328;DHT22;13279;51.300;12.394;2022-08-19T02:19:04;19.40;99.90
25328;DHT22;13279;51.300;12.394;2022-08-19T02:21:32;19.50;99.90
25328;DHT22;13279;51.300;12.394;2022-08-19T02:24:00;19.50;99.90
25328;DHT22;13279;51.300;12.394;2022-08-19T02:26:28;19.40;99.90
25328;DHT22;13279;51.300;12.394;2022-08-19T02:28:56;19.50;99.90
25328;DHT22;13279;51.300;12.394;2022-08-19T02:31:24;19.40;99.90
25328;DHT22;13279;51.300;12.394;2022-08-19T02:33:56;19.40;99.90
25328;DHT22;13279;51.300;12.394;2022-08-19T02:36:24;19.50;99.90
25328;DHT22;13279;51.300;12.394;2022-08-19T02:38:53;19.50;99.90
25328;DHT22;13279;51.300;12.394;2022-08-19T02:41:22;19.50;99.90
25328;DHT22;13279;51.300;12.394;2022-08-19T02:43:49;19.40;99.90
25328;DHT22;13279;51.300;12.394;2022-08-19T02:46:20;19.50;99.90
25328;DHT22;13279;51.300;12.394;2022-08-19T02:48:49;19.50;99.90
25328;DHT22;13279;51.300;12.394;2022-08-19T02:51:19;19.50;99.90
25328;DHT22;13279;51.300;12.394;2022-08-19T02:53:47;19.50;99.90
25328;DHT22;13279;51.300;12.394;2022-08-19T02:56:15;19.50;99.90
25328;DHT22;13279;51.300;12.394;2022-08-19T02:58:43;19.50;99.90
25328;DHT22;13279;51.300;12.394;2022-08-19T03:01:11;19.50;99.90
25328;DHT22;13279;51.300;12.394;2022-08-19T03:03:38;19.50;99.90
25328;DHT22;13279;51.300;12.394;2022-08-19T03:06:09;19.50;99.90
25328;DHT22;13279;51.300;12.394;2022-08-19T03:08:39;19.50;99.90
25328;DHT22;13279;51.300;12.394;2022-08-19T03:11:13;19.50;99.90
25328;DHT22;13279;51.300;12.394;2022-08-19T03:13:40;19.50;99.90
25328;DHT22;13279;51.300;12.394;2022-08-19T03:16:10;19.50;99.90
25328;DHT22;13279;51.300;12.394;2022-08-19T03:18:38;19.50;99.90
25328;DHT22;13279;51.300;12.394;2022-08-19T03:21:05;19.50;99.90
25328;DHT22;13279;51.300;12.394;2022-08-19T03:23:33;19.60;99.90
25328;DHT22;13279;51.300;12.394;2022-08-19T03:26:04;19.60;99.90
25328;DHT22;13279;51.300;12.394;2022-08-19T03:28:33;19.60;99.90
25328;DHT22;13279;51.300;12.394;2022-08-19T03:31:03;19.60;99.90
25328;DHT22;13279;51.300;12.394;2022-08-19T03:33:33;19.60;99.90
25328;DHT22;13279;51.300;12.394;2022-08-19T03:36:06;19.60;99.90
25328;DHT22;13279;51.300;12.394;2022-08-19T03:38:35;19.60;99.90
25328;DHT22;13279;51.300;12.394;2022-08-19T03:41:06;19.60;99.90
25328;DHT22;13279;51.300;12.394;2022-08-19T03:43:35;19.60;99.90
25328;DHT22;13279;51.300;12.394;2022-08-19T03:46:05;19.60;99.90
25328;DHT22;13279;51.300;12.394;2022-08-19T03:48:33;19.60;99.90
25328;DHT22;13279;51.300;12.394;2022-08-19T03:51:01;19.60;99.90
25328;DHT22;13279;51.300;12.394;2022-08-19T03:53:29;19.60;99.90
25328;DHT22;13279;51.300;12.394;2022-08-19T03:55:58;19.60;99.90
25328;DHT22;13279;51.300;12.394;2022-08-19T03:58:28;19.60;99.90
25328;DHT22;13279;51.300;12.394;2022-08-19T04:00:56;19.60;99.90
25328;DHT22;13279;51.300;12.394;2022-08-19T04:03:24;19.60;99.90
25328;DHT22;13279;51.300;12.394;2022-08-19T04:05:53;19.60;99.90
25328;DHT22;13279;51.300;12.394;2022-08-19T04:08:20;19.60;99.90
25328;DHT22;13279;51.300;12.394;2022-08-19T04:10:48;19.60;99.90
25328;DHT22;13279;51.300;12.394;2022-08-19T04:13:17;19.60;99.90
25328;DHT22;13279;51.300;12.394;2022-08-19T04:15:46;19.60;99.90
25328;DHT22;13279;51.300;12.394;2022-08-19T04:18:13;19.60;99.90
25328;DHT22;13279;51.300;12.394;2022-08-19T04:20:45;19.50;99.90
25328;DHT22;13279;51.300;12.394;2022-08-19T04:23:13;19.50;99.90
25328;DHT22;13279;51.300;12.394;2022-08-19T04:25:43;19.50;99.90
25328;DHT22;13279;51.300;12.394;2022-08-19T04:28:12;19.50;99.90
25328;DHT22;13279;51.300;12.394;2022-08-19T04:30:41;19.50;99.90
25328;DHT22;13279;51.300;12.394;2022-08-19T04:33:11;19.50;99.90
25328;DHT22;13279;51.300;12.394;2022-08-19T04:35:40;19.50;99.90
25328;DHT22;13279;51.300;12.394;2022-08-19T04:38:09;19.50;99.90
25328;DHT22;13279;51.300;12.394;2022-08-19T04:40:40;19.50;99.90
25328;DHT22;13279;51.300;12.394;2022-08-19T04:43:26;19.50;99.90
25328;DHT22;13279;51.300;12.394;2022-08-19T04:45:54;19.50;99.90
25328;DHT22;13279;51.300;12.394;2022-08-19T04:48:23;19.40;99.90
25328;DHT22;13279;51.300;12.394;2022-08-19T04:50:53;19.50;99.90
25328;DHT22;13279;51.300;12.394;2022-08-19T04:53:24;19.40;99.90
25328;DHT22;13279;51.300;12.394;2022-08-19T04:55:55;19.50;99.90
25328;DHT22;13279;51.300;12.394;2022-08-19T04:58:23;19.50;99.90
25328;DHT22;13279;51.300;12.394;2022-08-19T05:00:52;19.50;99.90
25328;DHT22;13279;51.300;12.394;2022-08-19T05:03:20;19.50;99.90
25328;DHT22;13279;51.300;12.394;2022-08-19T05:05:49;19.50;99.90
25328;DHT22;13279;51.300;12.394;2022-08-19T05:08:18;19.60;99.90
25328;DHT22;13279;51.300;12.394;2022-08-19T05:10:48;19.60;99.90
25328;DHT22;13279;51.300;12.394;2022-08-19T05:13:17;19.60;99.90
25328;DHT22;13279;51.300;12.394;2022-08-19T05:15:53;19.60;99.90
25328;DHT22;13279;51.300;12.394;2022-08-19T05:18:22;19.60;99.90
25328;DHT22;13279;51.300;12.394;2022-08-19T05:21:09;19.60;99.90
25328;DHT22;13279;51.300;12.394;2022-08-19T05:23:55;19.60;99.90
25328;DHT22;13279;51.300;12.394;2022-08-19T05:26:23;19.60;99.90
25328;DHT22;13279;51.300;12.394;2022-08-19T05:28:52;19.60;99.90
25328;DHT22;13279;51.300;12.394;2022-08-19T05:31:20;19.60;99.90
25328;DHT22;13279;51.300;12.394;2022-08-19T05:33:47;19.60;99.90
25328;DHT22;13279;51.300;12.394;2022-08-19T05:36:18;19.60;99.90
25328;DHT22;13279;51.300;12.394;2022-08-19T05:38:46;19.60;99.90
25328;DHT22;13279;51.300;12.394;2022-08-19T05:41:16;19.60;99.90
25328;DHT22;13279;51.300;12.394;2022-08-19T05:43:44;19.60;99.90
25328;DHT22;13279;51.300;12.394;2022-08-19T05:46:16;19.60;99.90
25328;DHT22;13279;51.300;12.394;2022-08-19T05:48:45;19.60;99.90
25328;DHT22;13279;51.300;12.394;2022-08-19T05:51:14;19.60;99.90
25328;DHT22;13279;51.300;12.394;2022-08-19T05:53:43;19.60;99.90
25328;DHT22;13279;51.300;12.394;2022-08-19T05:56:14;19.60;99.90
25328;DHT22;13279;51.300;12.394;2022-08-19T05:58:42;19.60;99.90
25328;DHT22;13279;51.300;12.394;2022-08-19T06:01:12;19.60;99.90
25328;DHT22;13279;51.300;12.394;2022-08-19T06:03:41;19.60;99.90
25328;DHT22;13279;51.300;12.394;2022-08-19T06:06:14;19.60;99.90
25328;DHT22;13279;51.300;12.394;2022-08-19T06:08:43;19.60;99.90
25328;DHT22;13279;51.300;12.394;2022-08-19T06:11:19;19.60;99.90
25328;DHT22;13279;51.300;12.394;2022-08-19T06:13:49;19.60;99.90
25328;DHT22;13279;51.300;12.394;2022-08-19T06:16:18;19.60;99.90
25328;DHT22;13279;51.300;12.394;2022-08-19T06:18:49;19.60;99.90
25328;DHT22;13279;51.300;12.394;2022-08-19T06:21:19;19.70;99.90
25328;DHT22;13279;51.300;12.394;2022-08-19T06:23:48;19.60;99.90
25328;DHT22;13279;51.300;12.394;2022-08-19T06:26:19;19.70;99.90
25328;DHT22;13279;51.300;12.394;2022-08-19T06:28:47;19.70;99.90
25328;DHT22;13279;51.300;12.394;2022-08-19T06:31:16;19.70;99.90
25328;DHT22;13279;51.300;12.394;2022-08-19T06:33:45;19.70;99.90
25328;DHT22;13279;51.300;12.394;2022-08-19T06:36:20;19.70;99.90
25328;DHT22;13279;51.300;12.394;2022-08-19T06:38:55;19.70;99.90
25328;DHT22;13279;51.300;12.394;2022-08-19T06:41:22;19.80;99.90
25328;DHT22;13279;51.300;12.394;2022-08-19T06:43:50;19.70;99.90
25328;DHT22;13279;51.300;12.394;2022-08-19T06:46:18;19.70;99.90
25328;DHT22;13279;51.300;12.394;2022-08-19T06:48:47;19.70;99.90
25328;DHT22;13279;51.300;12.394;2022-08-19T06:51:16;19.70;99.90
25328;DHT22;13279;51.300;12.394;2022-08-19T06:53:44;19.70;99.90
25328;DHT22;13279;51.300;12.394;2022-08-19T06:56:15;19.70;99.90
25328;DHT22;13279;51.300;12.394;2022-08-19T06:58:43;19.70;99.90
25328;DHT22;13279;51.300;12.394;2022-08-19T07:01:12;19.70;99.90
25328;DHT22;13279;51.300;12.394;2022-08-19T07:03:39;19.60;99.90
25328;DHT22;13279;51.300;12.394;2022-08-19T07:06:10;19.60;99.90
25328;DHT22;13279;51.300;12.394;2022-08-19T07:08:38;19.60;99.90
25328;DHT22;13279;51.300;12.394;2022-08-19T07:11:08;19.60;99.90
25328;DHT22;13279;51.300;12.394;2022-08-19T07:13:38;19.60;99.90
25328;DHT22;13279;51.300;12.394;2022-08-19T07:16:07;19.60;99.90
25328;DHT22;13279;51.300;12.394;2022-08-19T07:18:35;19.50;99.90
25328;DHT22;13279;51.300;12.394;2022-08-19T07:21:05;19.50;99.90
25328;DHT22;13279;51.300;12.394;2022-08-19T07:23:33;19.50;99.90
25328;DHT22;13279;51.300;12.394;2022-08-19T07:26:05;19.50;99.90
25328;DHT22;13279;51.300;12.394;2022-08-19T07:28:33;19.50;99.90
25328;DHT22;13279;51.300;12.394;2022-08-19T07:31:02;19.50;99.90
25328;DHT22;13279;51.300;12.394;2022-08-19T07:33:29;19.50;99.90
25328;DHT22;13279;51.300;12.394;2022-08-19T07:35:58;19.50;99.90
25328;DHT22;13279;51.300;12.394;2022-08-19T07:38:26;19.40;99.90
25328;DHT22;13279;51.300;12.394;2022-08-19T07:40:53;19.40;99.90
25328;DHT22;13279;51.300;12.394;2022-08-19T07:43:21;19.40;99.90
25328;DHT22;13279;51.300;12.394;2022-08-19T07:45:52;19.40;99.90
25328;DHT22;13279;51.300;12.394;2022-08-19T07:48:24;19.50;99.90
25328;DHT22;13279;51.300;12.394;2022-08-19T07:50:52;19.50;99.90
25328;DHT22;13279;51.300;12.394;2022-08-19T07:53:20;19.60;99.90
25328;DHT22;13279;51.300;12.394;2022-08-19T07:55:48;19.60;99.90
25328;DHT22;13279;51.300;12.394;2022-08-19T07:58:20;19.60;99.90
25328;DHT22;13279;51.300;12.394;2022-08-19T08:00:49;19.60;99.90
25328;DHT22;13279;51.300;12.394;2022-08-19T08:03:20;19.60;99.90
25328;DHT22;13279;51.300;12.394;2022-08-19T08:06:10;19.60;99.90
25328;DHT22;13279;51.300;12.394;2022-08-19T08:08:54;19.60;99.90
25328;DHT22;13279;51.300;12.394;2022-08-19T08:11:44;19.60;99.90
25328;DHT22;13279;51.300;12.394;2022-08-19T08:14:15;19.60;99.90
25328;DHT22;13279;51.300;12.394;2022-08-19T08:16:43;19.60;99.90
25328;DHT22;13279;51.300;12.394;2022-08-19T08:19:12;19.70;99.90
25328;DHT22;13279;51.300;12.394;2022-08-19T08:21:42;19.70;99.90
25328;DHT22;13279;51.300;12.394;2022-08-19T08:24:10;19.70;99.90
25328;DHT22;13279;51.300;12.394;2022-08-19T08:26:39;19.70;99.90
25328;DHT22;13279;51.300;12.394;2022-08-19T08:29:07;19.80;99.90
25328;DHT22;13279;51.300;12.394;2022-08-19T08:31:39;19.80;99.90
25328;DHT22;13279;51.300;12.394;2022-08-19T08:34:07;19.80;99.90
25328;DHT22;13279;51.300;12.394;2022-08-19T08:36:37;19.80;99.90
25328;DHT22;13279;51.300;12.394;2022-08-19T08:39:09;19.80;99.90
25328;DHT22;13279;51.300;12.394;2022-08-19T08:41:44;19.80;99.90
25328;DHT22;13279;51.300;12.394;2022-08-19T08:44:16;19.70;99.90
25328;DHT22;13279;51.300;12.394;2022-08-19T08:46:48;19.70;99.90
25328;DHT22;13279;51.300;12.394;2022-08-19T08:49:29;19.70;99.90
25328;DHT22;13279;51.300;12.394;2022-08-19T08:52:02;19.70;99.90
25328;DHT22;13279;51.300;12.394;2022-08-19T08:54:35;19.70;99.90
25328;DHT22;13279;51.300;12.394;2022-08-19T08:57:12;19.70;99.90
25328;DHT22;13279;51.300;12.394;2022-08-19T08:59:43;19.70;99.90
25328;DHT22;13279;51.300;12.394;2022-08-19T09:02:15;19.70;99.90
25328;DHT22;13279;51.300;12.394;2022-08-19T09:04:42;19.70;99.90
25328;DHT22;13279;51.300;12.394;2022-08-19T09:07:22;19.80;99.90
25328;DHT22;13279;51.300;12.394;2022-08-19T09:10:01;19.90;99.90
25328;DHT22;13279;51.300;12.394;2022-08-19T09:12:35;19.80;99.90
25328;DHT22;13279;51.300;12.394;2022-08-19T09:15:08;19.90;99.90
25328;DHT22;13279;51.300;12.394;2022-08-19T09:17:37;19.90;99.90
25328;DHT22;13279;51.300;12.394;2022-08-19T09:20:08;19.90;99.90
25328;DHT22;13279;51.300;12.394;2022-08-19T09:22:42;19.80;99.90
25328;DHT22;13279;51.300;12.394;2022-08-19T09:25:14;19.80;99.90
25328;DHT22;13279;51.300;12.394;2022-08-19T09:27:42;19.80;99.90
25328;DHT22;13279;51.300;12.394;2022-08-19T09:30:13;19.70;99.90
25328;DHT22;13279;51.300;12.394;2022-08-19T09:32:42;19.70;99.90
25328;DHT22;13279;51.300;12.394;2022-08-19T09:35:10;19.80;99.90
25328;DHT22;13279;51.300;12.394;2022-08-19T09:37:38;19.80;99.90
25328;DHT22;13279;51.300;12.394;2022-08-19T09:40:07;19.80;99.90
25328;DHT22;13279;51.300;12.394;2022-08-19T09:42:36;19.90;99.90
25328;DHT22;13279;51.300;12.394;2022-08-19T09:45:05;20.00;99.90
25328;DHT22;13279;51.300;12.394;2022-08-19T09:47:33;20.10;99.90
25328;DHT22;13279;51.300;12.394;2022-08-19T09:50:02;20.30;99.90
25328;DHT22;13279;51.300;12.394;2022-08-19T09:52:30;20.30;99.90
25328;DHT22;13279;51.300;12.394;2022-08-19T09:54:58;20.30;99.90
25328;DHT22;13279;51.300;12.394;2022-08-19T09:57:25;20.30;99.90
25328;DHT22;13279;51.300;12.394;2022-08-19T09:59:54;20.30;99.90
25328;DHT22;13279;51.300;12.394;2022-08-19T10:02:22;20.30;99.90
25328;DHT22;13279;51.300;12.394;2022-08-19T10:04:50;20.30;99.90
25328;DHT22;13279;51.300;12.394;2022-08-19T10:07:36;20.40;99.90
25328;DHT22;13279;51.300;12.394;2022-08-19T10:10:05;20.30;99.90
25328;DHT22;13279;51.300;12.394;2022-08-19T10:12:33;20.40;99.90
25328;DHT22;13279;51.300;12.394;2022-08-19T10:15:04;20.40;99.90
25328;DHT22;13279;51.300;12.394;2022-08-19T10:17:32;20.60;99.90
25328;DHT22;13279;51.300;12.394;2022-08-19T10:20:01;20.70;99.90
25328;DHT22;13279;51.300;12.394;2022-08-19T10:22:30;20.70;99.90
25328;DHT22;13279;51.300;12.394;2022-08-19T10:24:58;20.70;99.90
25328;DHT22;13279;51.300;12.394;2022-08-19T10:27:25;20.70;99.90
25328;DHT22;13279;51.300;12.394;2022-08-19T10:29:53;20.70;99.90
25328;DHT22;13279;51.300;12.394;2022-08-19T10:32:22;20.80;99.90
25328;DHT22;13279;51.300;12.394;2022-08-19T10:34:51;20.90;99.90
25328;DHT22;13279;51.300;12.394;2022-08-19T10:37:19;20.70;99.90
25328;DHT22;13279;51.300;12.394;2022-08-19T10:39:47;20.70;99.90
25328;DHT22;13279;51.300;12.394;2022-08-19T10:42:16;20.60;99.90
25328;DHT22;13279;51.300;12.394;2022-08-19T10:44:45;20.60;99.90
25328;DHT22;13279;51.300;12.394;2022-08-19T10:47:14;20.50;99.90
25328;DHT22;13279;51.300;12.394;2022-08-19T10:49:43;20.60;99.90
25328;DHT22;13279;51.300;12.394;2022-08-19T10:52:29;20.60;99.90
25328;DHT22;13279;51.300;12.394;2022-08-19T10:55:05;20.70;99.90
25328;DHT22;13279;51.300;12.394;2022-08-19T10:57:51;20.80;99.90
25328;DHT22;13279;51.300;12.394;2022-08-19T11:00:19;20.90;99.90
25328;DHT22;13279;51.300;12.394;2022-08-19T11:02:47;21.00;99.90
25328;DHT22;13279;51.300;12.394;2022-08-19T11:05:16;21.00;99.90
25328;DHT22;13279;51.300;12.394;2022-08-19T11:07:45;21.00;99.90
25328;DHT22;13279;51.300;12.394;2022-08-19T11:10:14;21.00;99.90
25328;DHT22;13279;51.300;12.394;2022-08-19T11:12:45;21.00;99.90
25328;DHT22;13279;51.300;12.394;2022-08-19T11:15:14;20.90;99.90
25328;DHT22;13279;51.300;12.394;2022-08-19T11:17:42;20.90;99.90
25328;DHT22;13279;51.300;12.394;2022-08-19T11:20:11;20.80;99.90
25328;DHT22;13279;51.300;12.394;2022-08-19T11:22:41;20.70;99.90
25328;DHT22;13279;51.300;12.394;2022-08-19T11:25:10;20.70;99.90
25328;DHT22;13279;51.300;12.394;2022-08-19T11:27:39;20.70;99.90
25328;DHT22;13279;51.300;12.394;2022-08-19T11:30:10;20.60;99.90
25328;DHT22;13279;51.300;12.394;2022-08-19T11:32:37;20.60;99.90
25328;DHT22;13279;51.300;12.394;2022-08-19T11:35:06;20.70;99.90
25328;DHT22;13279;51.300;12.394;2022-08-19T11:37:34;20.80;99.90
25328;DHT22;13279;51.300;12.394;2022-08-19T11:40:06;20.70;99.90
25328;DHT22;13279;51.300;12.394;2022-08-19T11:42:34;20.70;99.90
25328;DHT22;13279;51.300;12.394;2022-08-19T11:45:19;20.70;99.90
25328;DHT22;13279;51.300;12.394;2022-08-19T11:47:47;20.70;99.90
25328;DHT22;13279;51.300;12.394;2022-08-19T11:50:15;20.70;99.90
25328;DHT22;13279;51.300;12.394;2022-08-19T11:52:43;20.90;99.90
25328;DHT22;13279;51.300;12.394;2022-08-19T11:55:12;21.00;99.90
25328;DHT22;13279;51.300;12.394;2022-08-19T11:57:40;21.10;99.90
25328;DHT22;13279;51.300;12.394;2022-08-19T12:00:10;21.30;99.90
25328;DHT22;13279;51.300;12.394;2022-08-19T12:02:39;21.40;99.90
25328;DHT22;13279;51.300;12.394;2022-08-19T12:05:07;21.50;99.90
25328;DHT22;13279;51.300;12.394;2022-08-19T12:07:35;21.60;99.90
25328;DHT22;13279;51.300;12.394;2022-08-19T12:10:03;21.70;99.90
25328;DHT22;13279;51.300;12.394;2022-08-19T12:12:32;21.80;99.90
25328;DHT22;13279;51.300;12.394;2022-08-19T12:14:59;21.90;99.90
25328;DHT22;13279;51.300;12.394;2022-08-19T12:17:27;22.00;99.90
25328;DHT22;13279;51.300;12.394;2022-08-19T12:19:55;22.10;99.90
25328;DHT22;13279;51.300;12.394;2022-08-19T12:22:22;22.50;99.90
25328;DHT22;13279;51.300;12.394;2022-08-19T12:24:49;22.70;99.90
25328;DHT22;13279;51.300;12.394;2022-08-19T12:27:19;23.00;99.90
25328;DHT22;13279;51.300;12.394;2022-08-19T12:29:48;23.20;99.90
25328;DHT22;13279;51.300;12.394;2022-08-19T12:32:16;23.10;99.90
25328;DHT22;13279;51.300;12.394;2022-08-19T12:34:43;23.10;99.90
25328;DHT22;13279;51.300;12.394;2022-08-19T12:37:12;23.10;99.90
25328;DHT22;13279;51.300;12.394;2022-08-19T12:39:42;23.30;99.90
25328;DHT22;13279;51.300;12.394;2022-08-19T12:42:10;23.50;99.90
25328;DHT22;13279;51.300;12.394;2022-08-19T12:44:39;23.50;1.00
25328;DHT22;13279;51.300;12.394;2022-08-19T12:47:11;23.60;1.00
25328;DHT22;13279;51.300;12.394;2022-08-19T12:49:39;23.60;1.00
25328;DHT22;13279;51.300;12.394;2022-08-19T12:52:07;23.70;1.00
25328;DHT22;13279;51.300;12.394;2022-08-19T12:54:36;23.80;1.00
25328;DHT22;13279;51.300;12.394;2022-08-19T12:57:06;23.70;1.00
25328;DHT22;13279;51.300;12.394;2022-08-19T12:59:34;23.70;1.00
25328;DHT22;13279;51.300;12.394;2022-08-19T13:02:02;23.70;1.00
25328;DHT22;13279;51.300;12.394;2022-08-19T13:04:33;24.10;1.00
25328;DHT22;13279;51.300;12.394;2022-08-19T13:07:07;24.40;1.00
25328;DHT22;13279;51.300;12.394;2022-08-19T13:09:36;24.20;1.00
25328;DHT22;13279;51.300;12.394;2022-08-19T13:12:04;23.90;1.00
25328;DHT22;13279;51.300;12.394;2022-08-19T13:14:34;23.70;1.00
25328;DHT22;13279;51.300;12.394;2022-08-19T13:17:01;23.70;1.00
25328;DHT22;13279;51.300;12.394;2022-08-19T13:19:29;23.50;1.00
25328;DHT22;13279;51.300;12.394;2022-08-19T13:21:58;23.40;1.00
25328;DHT22;13279;51.300;12.394;2022-08-19T13:24:26;23.30;1.00
25328;DHT22;13279;51.300;12.394;2022-08-19T13:26:54;23.20;1.00
25328;DHT22;13279;51.300;12.394;2022-08-19T13:29:21;23.00;1.00
25328;DHT22;13279;51.300;12.394;2022-08-19T13:32:06;22.90;1.00
25328;DHT22;13279;51.300;12.394;2022-08-19T13:34:51;22.80;5.20
25328;DHT22;13279;51.300;12.394;2022-08-19T13:37:19;22.70;1.00
25328;DHT22;13279;51.300;12.394;2022-08-19T13:40:08;22.50;15.80
25328;DHT22;13279;51.300;12.394;2022-08-19T13:42:38;22.40;23.00
25328;DHT22;13279;51.300;12.394;2022-08-19T13:45:07;22.40;47.70
25328;DHT22;13279;51.300;12.394;2022-08-19T13:47:35;22.30;46.80
25328;DHT22;13279;51.300;12.394;2022-08-19T13:50:09;22.30;42.90
25328;DHT22;13279;51.300;12.394;2022-08-19T13:52:39;22.30;66.90
25328;DHT22;13279;51.300;12.394;2022-08-19T13:55:09;22.30;60.70
25328;DHT22;13279;51.300;12.394;2022-08-19T13:57:37;22.30;95.20
25328;DHT22;13279;51.300;12.394;2022-08-19T14:00:07;22.30;89.70
25328;DHT22;13279;51.300;12.394;2022-08-19T14:02:35;22.20;81.00
25328;DHT22;13279;51.300;12.394;2022-08-19T14:05:04;22.20;84.20
25328;DHT22;13279;51.300;12.394;2022-08-19T14:07:32;22.30;95.50
25328;DHT22;13279;51.300;12.394;2022-08-19T14:10:01;22.40;89.90
25328;DHT22;13279;51.300;12.394;2022-08-19T14:12:28;22.50;80.60
25328;DHT22;13279;51.300;12.394;2022-08-19T14:14:58;22.70;45.00
25328;DHT22;13279;51.300;12.394;2022-08-19T14:17:25;22.80;10.00
25328;DHT22;13279;51.300;12.394;2022-08-19T14:19:56;23.00;5.40
25328;DHT22;13279;51.300;12.394;2022-08-19T14:22:23;23.10;1.00
25328;DHT22;13279;51.300;12.394;2022-08-19T14:24:51;23.10;1.00
25328;DHT22;13279;51.300;12.394;2022-08-19T14:27:20;23.00;1.00
25328;DHT22;13279;51.300;12.394;2022-08-19T14:29:47;22.90;1.00
25328;DHT22;13279;51.300;12.394;2022-08-19T14:32:15;22.80;1.00
25328;DHT22;13279;51.300;12.394;2022-08-19T14:34:42;22.70;1.00
25328;DHT22;13279;51.300;12.394;2022-08-19T14:37:11;22.70;1.00
25328;DHT22;13279;51.300;12.394;2022-08-19T14:39:40;22.50;12.70
25328;DHT22;13279;51.300;12.394;2022-08-19T14:42:08;22.50;1.00
25328;DHT22;13279;51.300;12.394;2022-08-19T14:44:37;22.50;13.10
25328;DHT22;13279;51.300;12.394;2022-08-19T14:47:05;22.50;10.50
25328;DHT22;13279;51.300;12.394;2022-08-19T14:49:33;22.50;8.70
25328;DHT22;13279;51.300;12.394;2022-08-19T14:52:02;22.50;9.30
25328;DHT22;13279;51.300;12.394;2022-08-19T14:54:30;22.40;27.40
25328;DHT22;13279;51.300;12.394;2022-08-19T14:56:57;22.40;30.00
25328;DHT22;13279;51.300;12.394;2022-08-19T14:59:25;22.40;14.30
25328;DHT22;13279;51.300;12.394;2022-08-19T15:01:54;22.40;61.00
25328;DHT22;13279;51.300;12.394;2022-08-19T15:04:22;22.40;8.80
25328;DHT22;13279;51.300;12.394;2022-08-19T15:06:49;22.30;23.50
25328;DHT22;13279;51.300;12.394;2022-08-19T15:09:17;22.30;4.30
25328;DHT22;13279;51.300;12.394;2022-08-19T15:11:44;22.20;36.60
25328;DHT22;13279;51.300;12.394;2022-08-19T15:14:12;22.20;25.70
25328;DHT22;13279;51.300;12.394;2022-08-19T15:16:41;22.20;46.00
25328;DHT22;13279;51.300;12.394;2022-08-19T15:19:09;22.20;44.70
25328;DHT22;13279;51.300;12.394;2022-08-19T15:21:37;22.20;26.10
25328;DHT22;13279;51.300;12.394;2022-08-19T15:24:05;22.20;51.40
25328;DHT22;13279;51.300;12.394;2022-08-19T15:26:33;22.20;41.30
25328;DHT22;13279;51.300;12.394;2022-08-19T15:29:01;22.20;34.30
25328;DHT22;13279;51.300;12.394;2022-08-19T15:31:29;22.20;42.70